Time;durP1;ratioP1;P1;durP2;ratioP2;P2;SDS_P1;SDS_P2;PMS_P1;PMS_P2;Temp;Humidity;BMP_temperature;BMP_pressure;BME280_temperature;BME280_humidity;BME280_pressure;Samples;Min_cycle;Max_cycle;Signal;HPM_P1;HPM_P2
2023/11/25 00:00:21;;;;;;;3.85;0.80;;;;;;;;;;5070180;28;20394;-77
2023/11/25 00:02:48;;;;;;;5.43;1.10;;;;;;;;;;5053639;28;20139;-76
2023/11/25 00:05:14;;;;;;;3.25;0.70;;;;;;;;;;5063736;28;20111;-77
2023/11/25 00:07:39;;;;;;;5.72;0.90;;;;;;;;;;5062704;28;20123;-77
2023/11/25 00:10:06;;;;;;;3.97;0.70;;;;;;;;;;5064115;28;20032;-77
2023/11/25 00:12:31;;;;;;;4.80;0.85;;;;;;;;;;5065813;28;20445;-77
2023/11/25 00:14:56;;;;;;;4.93;0.60;;;;;;;;;;5080117;28;20016;-77
2023/11/25 00:17:24;;;;;;;5.70;0.85;;;;;;;;;;5059721;28;20036;-77
2023/11/25 00:19:50;;;;;;;3.53;0.70;;;;;;;;;;5066505;28;20020;-76
2023/11/25 00:22:15;;;;;;;4.30;0.75;;;;;;;;;;5064872;28;20421;-77
2023/11/25 00:24:41;;;;;;;4.28;0.60;;;;;;;;;;5053217;28;20028;-77
2023/11/25 00:27:06;;;;;;;4.50;0.73;;;;;;;;;;5039244;28;20039;-77
2023/11/25 00:29:32;;;;;;;7.00;0.88;;;;;;;;;;5044543;28;20045;-77
2023/11/25 00:31:57;;;;;;;6.55;1.08;;;;;;;;;;5056598;28;20091;-77
2023/11/25 00:34:24;;;;;;;5.88;0.75;;;;;;;;;;5026978;28;20044;-76
2023/11/25 00:36:51;;;;;;;8.23;1.58;;;;;;;;;;5095090;28;20036;-77
2023/11/25 00:39:17;;;;;;;6.70;1.45;;;;;;;;;;5043949;28;20033;-77
2023/11/25 00:41:43;;;;;;;6.57;1.05;;;;;;;;;;5060502;28;20073;-76
2023/11/25 00:44:08;;;;;;;16.63;1.52;;;;;;;;;;5060589;28;20040;-77
2023/11/25 00:46:35;;;;;;;9.10;1.20;;;;;;;;;;5059514;28;20494;-77
2023/11/25 00:49:00;;;;;;;5.63;1.00;;;;;;;;;;5073256;28;20037;-77
2023/11/25 00:51:26;;;;;;;5.95;1.35;;;;;;;;;;5058442;28;20119;-77
2023/11/25 00:53:52;;;;;;;10.48;1.77;;;;;;;;;;5063963;28;20028;-76
2023/11/25 00:56:17;;;;;;;8.23;1.38;;;;;;;;;;5056118;28;20036;-77
2023/11/25 00:58:43;;;;;;;9.40;1.48;;;;;;;;;;5060259;28;20145;-76
2023/11/25 01:01:08;;;;;;;6.53;1.15;;;;;;;;;;5044691;28;20028;-76
2023/11/25 01:03:34;;;;;;;6.72;1.30;;;;;;;;;;5040852;28;20132;-76
2023/11/25 01:06:06;;;;;;;7.03;1.20;;;;;;;;;;5056920;28;20037;-76
2023/11/25 01:08:32;;;;;;;8.40;1.40;;;;;;;;;;5060301;28;20024;-77
2023/11/25 01:10:58;;;;;;;9.95;1.73;;;;;;;;;;5057923;28;20311;-77
2023/11/25 01:13:23;;;;;;;8.57;1.45;;;;;;;;;;5046758;28;20072;-76
2023/11/25 01:15:51;;;;;;;9.25;1.98;;;;;;;;;;5073604;28;20044;-76
2023/11/25 01:18:17;;;;;;;8.68;1.42;;;;;;;;;;5064458;28;20521;-77
2023/11/25 01:20:43;;;;;;;6.78;1.30;;;;;;;;;;5067894;28;20037;-77
2023/11/25 01:23:08;;;;;;;9.55;1.33;;;;;;;;;;5072880;28;20085;-77
2023/11/25 01:25:34;;;;;;;8.15;1.25;;;;;;;;;;5044627;28;20051;-77
2023/11/25 01:27:59;;;;;;;11.52;2.22;;;;;;;;;;5038067;28;20816;-77
2023/11/25 01:30:24;;;;;;;7.88;1.25;;;;;;;;;;5041073;28;20029;-77
2023/11/25 01:32:50;;;;;;;6.57;0.98;;;;;;;;;;5045045;28;20044;-77
2023/11/25 01:35:15;;;;;;;11.43;1.75;;;;;;;;;;5063407;28;20094;-77
2023/11/25 01:37:41;;;;;;;8.45;1.30;;;;;;;;;;5063070;28;20029;-90
2023/11/25 01:40:11;;;;;;;8.73;1.05;;;;;;;;;;5052622;28;20123;-91
2023/11/25 01:42:37;;;;;;;10.27;2.25;;;;;;;;;;5054391;28;20457;-91
2023/11/25 01:45:02;;;;;;;8.57;1.38;;;;;;;;;;5049265;28;20024;-90
2023/11/25 01:47:30;;;;;;;6.88;1.02;;;;;;;;;;5037704;28;20476;-76
2023/11/25 01:49:55;;;;;;;8.80;1.02;;;;;;;;;;5062244;28;20098;-76
2023/11/25 01:52:22;;;;;;;9.30;1.45;;;;;;;;;;5070336;28;20475;-77
2023/11/25 01:54:48;;;;;;;5.97;1.20;;;;;;;;;;5064808;28;20530;-77
2023/11/25 01:57:15;;;;;;;10.77;1.33;;;;;;;;;;5083012;28;20027;-76
2023/11/25 01:59:41;;;;;;;10.48;1.67;;;;;;;;;;5086696;28;20055;-76
2023/11/25 02:02:07;;;;;;;9.15;1.50;;;;;;;;;;5070007;28;20040;-77
2023/11/25 02:04:33;;;;;;;6.45;1.02;;;;;;;;;;5049813;28;20033;-77
2023/11/25 02:07:00;;;;;;;7.40;1.30;;;;;;;;;;5067039;28;20024;-76
2023/11/25 02:09:25;;;;;;;5.90;1.10;;;;;;;;;;5080838;28;20097;-77
2023/11/25 02:11:57;;;;;;;8.20;1.20;;;;;;;;;;5058431;28;20494;-77
2023/11/25 02:14:24;;;;;;;5.43;1.25;;;;;;;;;;5059570;28;20387;-76
2023/11/25 02:16:51;;;;;;;7.78;1.20;;;;;;;;;;5063484;28;20021;-77
2023/11/25 02:19:21;;;;;;;4.95;1.02;;;;;;;;;;5065062;28;20510;-77
2023/11/25 02:21:47;;;;;;;8.18;1.38;;;;;;;;;;5068003;28;20044;-77
2023/11/25 02:24:12;;;;;;;7.68;1.30;;;;;;;;;;5067466;28;20039;-76
2023/11/25 02:26:38;;;;;;;5.68;0.80;;;;;;;;;;5063641;28;20029;-76
2023/11/25 02:29:05;;;;;;;6.13;1.02;;;;;;;;;;5055230;28;20036;-76
2023/11/25 02:31:31;;;;;;;3.25;0.60;;;;;;;;;;5061394;28;20047;-77
2023/11/25 02:33:58;;;;;;;6.97;0.85;;;;;;;;;;5066531;28;20513;-77
2023/11/25 02:36:24;;;;;;;4.43;0.95;;;;;;;;;;5063942;28;20081;-76
2023/11/25 02:38:50;;;;;;;3.88;0.68;;;;;;;;;;5049535;28;20032;-77
2023/11/25 02:41:15;;;;;;;3.78;0.85;;;;;;;;;;5067753;28;20414;-77
2023/11/25 02:43:41;;;;;;;4.05;0.70;;;;;;;;;;5081373;28;20493;-77
2023/11/25 02:46:07;;;;;;;5.82;1.17;;;;;;;;;;5061472;28;20054;-76
2023/11/25 02:48:35;;;;;;;3.03;0.80;;;;;;;;;;5062242;28;20035;-77
2023/11/25 02:51:01;;;;;;;6.03;1.00;;;;;;;;;;5063413;28;20087;-76
2023/11/25 02:53:26;;;;;;;6.82;0.80;;;;;;;;;;5079113;28;20498;-77
2023/11/25 02:55:52;;;;;;;5.00;0.73;;;;;;;;;;5067643;28;20025;-77
2023/11/25 02:58:17;;;;;;;4.78;1.15;;;;;;;;;;5068844;28;20035;-92
2023/11/25 03:00:44;;;;;;;3.85;0.75;;;;;;;;;;5066839;28;20620;-95
2023/11/25 03:03:13;;;;;;;8.93;1.23;;;;;;;;;;5051536;28;20037;-91
2023/11/25 03:05:45;;;;;;;3.75;0.80;;;;;;;;;;5071875;28;20098;-93
2023/11/25 03:08:16;;;;;;;4.30;0.70;;;;;;;;;;5067479;28;20037;-94
2023/11/25 03:10:42;;;;;;;8.70;0.90;;;;;;;;;;5069746;28;20040;-91
2023/11/25 03:13:11;;;;;;;6.07;1.05;;;;;;;;;;5047581;28;20021;-94
2023/11/25 03:15:37;;;;;;;7.07;1.38;;;;;;;;;;5053570;28;20025;-95
2023/11/25 03:18:05;;;;;;;7.30;1.23;;;;;;;;;;5069506;28;20525;-95
2023/11/25 03:20:35;;;;;;;12.15;2.15;;;;;;;;;;5068740;28;20132;-95
2023/11/25 03:23:03;;;;;;;5.72;1.08;;;;;;;;;;5080450;28;20032;-93
2023/11/25 03:25:30;;;;;;;5.00;0.90;;;;;;;;;;5063563;28;20036;-95
2023/11/25 03:27:57;;;;;;;7.45;1.35;;;;;;;;;;5049659;28;20028;-94
2023/11/25 03:30:22;;;;;;;7.82;1.23;;;;;;;;;;5085945;28;20028;-93
2023/11/25 03:32:48;;;;;;;7.53;1.23;;;;;;;;;;5039338;28;20158;-95
2023/11/25 03:35:15;;;;;;;7.82;1.10;;;;;;;;;;5070254;28;20115;-94
2023/11/25 03:37:40;;;;;;;7.63;1.30;;;;;;;;;;5049424;28;20066;-93
2023/11/25 03:40:07;;;;;;;6.20;0.98;;;;;;;;;;5049707;28;20024;-96
2023/11/25 03:42:34;;;;;;;9.57;1.55;;;;;;;;;;5057371;28;20024;-93
2023/11/25 03:45:01;;;;;;;9.45;1.77;;;;;;;;;;5041532;28;20032;-95
2023/11/25 03:47:28;;;;;;;12.20;1.48;;;;;;;;;;5055817;28;20093;-95
2023/11/25 03:49:54;;;;;;;9.13;1.40;;;;;;;;;;5087160;28;20035;-95
2023/11/25 03:52:21;;;;;;;10.88;1.50;;;;;;;;;;5050043;28;20028;-94
2023/11/25 03:54:48;;;;;;;13.65;1.40;;;;;;;;;;5052825;28;20082;-94
2023/11/25 03:57:14;;;;;;;9.15;1.73;;;;;;;;;;5067919;28;20017;-76
2023/11/25 03:59:39;;;;;;;6.90;1.58;;;;;;;;;;5062191;28;20035;-77
2023/11/25 04:02:05;;;;;;;9.13;1.40;;;;;;;;;;5067784;28;20032;-77
2023/11/25 04:04:30;;;;;;;9.80;1.23;;;;;;;;;;5076405;28;20037;-76
2023/11/25 04:06:56;;;;;;;12.40;1.55;;;;;;;;;;5061155;28;20059;-93
2023/11/25 04:09:21;;;;;;;7.75;1.50;;;;;;;;;;5080255;28;20028;-95
2023/11/25 04:11:47;;;;;;;10.30;1.45;;;;;;;;;;5037969;28;20064;-93
2023/11/25 04:14:12;;;;;;;8.73;1.25;;;;;;;;;;5037733;28;20052;-94
2023/11/25 04:16:37;;;;;;;9.43;1.83;;;;;;;;;;5039499;28;20509;-93
2023/11/25 04:19:03;;;;;;;10.20;1.80;;;;;;;;;;5051914;28;20029;-93
2023/11/25 04:21:28;;;;;;;9.57;1.63;;;;;;;;;;5035256;28;20039;-96
2023/11/25 04:23:57;;;;;;;12.35;1.67;;;;;;;;;;5048144;28;20115;-95
2023/11/25 04:26:24;;;;;;;8.93;1.67;;;;;;;;;;5069989;28;20024;-95
2023/11/25 04:28:50;;;;;;;8.07;1.45;;;;;;;;;;5054805;28;20124;-93
2023/11/25 04:31:15;;;;;;;8.65;1.48;;;;;;;;;;5068397;28;20149;-96
2023/11/25 04:33:41;;;;;;;8.93;1.80;;;;;;;;;;5053435;28;20078;-96
2023/11/25 04:36:07;;;;;;;8.60;1.55;;;;;;;;;;5043569;28;20056;-95
2023/11/25 04:38:33;;;;;;;11.05;1.52;;;;;;;;;;5047610;28;20455;-96
2023/11/25 04:40:58;;;;;;;10.05;1.27;;;;;;;;;;5094117;28;20029;-94
2023/11/25 04:43:24;;;;;;;12.13;1.40;;;;;;;;;;5060822;28;20024;-95
2023/11/25 04:45:49;;;;;;;7.55;0.90;;;;;;;;;;5056048;28;20033;-96
2023/11/25 04:48:15;;;;;;;7.43;1.08;;;;;;;;;;5071434;28;20041;-95
2023/11/25 04:50:40;;;;;;;7.65;1.20;;;;;;;;;;5058194;28;20040;-92
2023/11/25 04:53:08;;;;;;;7.97;1.05;;;;;;;;;;5045046;28;20057;-95
2023/11/25 04:55:34;;;;;;;4.32;0.50;;;;;;;;;;5054828;28;20037;-95
2023/11/25 04:57:59;;;;;;;6.38;0.82;;;;;;;;;;5057746;28;20032;-95
2023/11/25 05:00:25;;;;;;;5.70;1.23;;;;;;;;;;5042093;28;20125;-94
2023/11/25 05:02:51;;;;;;;2.60;0.50;;;;;;;;;;5058780;28;20124;-92
2023/11/25 05:05:17;;;;;;;5.63;1.25;;;;;;;;;;5075367;28;20127;-93
2023/11/25 05:07:42;;;;;;;3.97;0.60;;;;;;;;;;5048719;28;20063;-76
2023/11/25 05:10:09;;;;;;;9.20;1.10;;;;;;;;;;5066388;28;20553;-77
2023/11/25 05:12:41;;;;;;;5.10;0.60;;;;;;;;;;5077557;28;20123;-77
2023/11/25 05:15:10;;;;;;;14.30;0.77;;;;;;;;;;5067988;28;20033;-77
2023/11/25 05:17:36;;;;;;;3.08;0.50;;;;;;;;;;5067925;28;20056;-76
2023/11/25 05:20:02;;;;;;;4.63;0.57;;;;;;;;;;5067043;28;20463;-77
2023/11/25 05:22:28;;;;;;;3.88;0.60;;;;;;;;;;5052079;28;20036;-77
2023/11/25 05:24:54;;;;;;;3.30;0.60;;;;;;;;;;5057249;28;20410;-76
2023/11/25 05:27:20;;;;;;;4.13;0.60;;;;;;;;;;5050124;28;20041;-76
2023/11/25 05:29:45;;;;;;;3.15;0.60;;;;;;;;;;5059084;28;20420;-77
2023/11/25 05:32:12;;;;;;;5.13;0.60;;;;;;;;;;5065036;28;20029;-77
2023/11/25 05:34:39;;;;;;;4.78;0.40;;;;;;;;;;5063515;28;20112;-77
2023/11/25 05:37:05;;;;;;;1.65;0.40;;;;;;;;;;5070018;28;20036;-77
2023/11/25 05:39:30;;;;;;;2.30;0.50;;;;;;;;;;5072176;28;20036;-77
2023/11/25 05:41:56;;;;;;;2.22;0.35;;;;;;;;;;5078212;28;20383;-77
2023/11/25 05:44:21;;;;;;;3.22;0.43;;;;;;;;;;5068074;28;20036;-77
2023/11/25 05:46:47;;;;;;;0.38;0.20;;;;;;;;;;5065351;28;20032;-77
2023/11/25 05:49:12;;;;;;;4.32;0.65;;;;;;;;;;5051726;28;20498;-76
2023/11/25 05:51:42;;;;;;;1.92;0.50;;;;;;;;;;5068896;28;20131;-77
2023/11/25 05:54:08;;;;;;;6.38;0.68;;;;;;;;;;5081990;28;20020;-77
2023/11/25 05:56:33;;;;;;;3.72;0.80;;;;;;;;;;5045600;28;20040;-77
2023/11/25 05:58:59;;;;;;;5.43;1.05;;;;;;;;;;5051259;28;20032;-77
2023/11/25 06:01:26;;;;;;;3.88;0.60;;;;;;;;;;5083688;28;20099;-77
2023/11/25 06:03:52;;;;;;;3.80;0.50;;;;;;;;;;5066362;28;20031;-77
2023/11/25 06:06:22;;;;;;;4.38;0.82;;;;;;;;;;5055162;28;20413;-77
2023/11/25 06:08:48;;;;;;;4.05;0.60;;;;;;;;;;5059764;28;21597;-77
2023/11/25 06:11:28;;;;;;;6.32;0.77;;;;;;;;;;5080810;28;20123;-76
2023/11/25 06:13:56;;;;;;;5.05;0.90;;;;;;;;;;5063835;28;20422;-76
2023/11/25 06:16:22;;;;;;;5.18;0.75;;;;;;;;;;5069805;28;20601;-88
2023/11/25 06:18:48;;;;;;;5.35;0.90;;;;;;;;;;5066317;28;20035;-76
2023/11/25 06:21:14;;;;;;;4.63;0.85;;;;;;;;;;5082536;28;20028;-77
2023/11/25 06:23:42;;;;;;;2.95;0.70;;;;;;;;;;5071004;28;20052;-76
2023/11/25 06:26:11;;;;;;;5.18;0.70;;;;;;;;;;5069215;28;20382;-76
2023/11/25 06:28:41;;;;;;;8.65;1.10;;;;;;;;;;5064553;28;20132;-87
2023/11/25 06:31:07;;;;;;;4.20;0.77;;;;;;;;;;5065341;28;20062;-88
2023/11/25 06:33:34;;;;;;;4.68;0.68;;;;;;;;;;5050775;28;20033;-89
2023/11/25 06:36:00;;;;;;;4.13;0.63;;;;;;;;;;5065914;28;20040;-89
2023/11/25 06:38:26;;;;;;;3.25;1.10;;;;;;;;;;5071869;28;20037;-90
2023/11/25 06:40:51;;;;;;;4.03;0.73;;;;;;;;;;5056050;28;20036;-89
2023/11/25 06:43:17;;;;;;;8.27;0.70;;;;;;;;;;5067203;28;20033;-89
2023/11/25 06:45:44;;;;;;;7.10;0.73;;;;;;;;;;5059597;28;20037;-88
2023/11/25 06:48:10;;;;;;;3.17;0.47;;;;;;;;;;5064434;28;20025;-90
2023/11/25 06:50:37;;;;;;;3.75;0.45;;;;;;;;;;5060773;28;20032;-90
2023/11/25 06:53:03;;;;;;;3.15;0.73;;;;;;;;;;5082973;28;20035;-91
2023/11/25 06:55:29;;;;;;;6.55;0.75;;;;;;;;;;5055061;28;20033;-88
2023/11/25 06:57:55;;;;;;;5.10;0.70;;;;;;;;;;5071215;28;20028;-90
2023/11/25 07:00:22;;;;;;;4.43;0.95;;;;;;;;;;5045747;28;20116;-89
2023/11/25 07:02:48;;;;;;;4.57;0.77;;;;;;;;;;5051675;28;20043;-90
2023/11/25 07:05:13;;;;;;;2.83;0.60;;;;;;;;;;5063579;28;20025;-90
2023/11/25 07:07:39;;;;;;;4.35;0.90;;;;;;;;;;5069981;28;20044;-89
2023/11/25 07:10:09;;;;;;;5.05;0.77;;;;;;;;;;5070232;28;20028;-89
2023/11/25 07:12:35;;;;;;;4.47;0.70;;;;;;;;;;5066094;28;20433;-90
2023/11/25 07:15:01;;;;;;;4.25;0.80;;;;;;;;;;5083680;28;20036;-90
2023/11/25 07:17:26;;;;;;;5.15;0.68;;;;;;;;;;5047830;28;20036;-89
2023/11/25 07:19:52;;;;;;;4.68;1.00;;;;;;;;;;5067483;28;20033;-88
2023/11/25 07:22:17;;;;;;;6.47;0.90;;;;;;;;;;5065788;28;20032;-90
2023/11/25 07:24:44;;;;;;;3.80;0.77;;;;;;;;;;5045616;28;20533;-88
2023/11/25 07:27:10;;;;;;;7.68;0.70;;;;;;;;;;5054128;28;20394;-88
2023/11/25 07:29:36;;;;;;;4.60;0.65;;;;;;;;;;5052311;28;20033;-91
2023/11/25 07:32:02;;;;;;;4.68;0.50;;;;;;;;;;5069619;28;20378;-89
2023/11/25 07:34:30;;;;;;;5.13;0.70;;;;;;;;;;5062926;28;20024;-88
2023/11/25 07:36:58;;;;;;;3.55;1.02;;;;;;;;;;5069335;28;20090;-76
2023/11/25 07:39:23;;;;;;;3.40;0.70;;;;;;;;;;5046194;28;20029;-77
2023/11/25 07:41:56;;;;;;;3.70;0.70;;;;;;;;;;5047218;28;20410;-76
2023/11/25 07:44:23;;;;;;;3.05;0.57;;;;;;;;;;5065397;28;20032;-76
2023/11/25 07:46:49;;;;;;;6.32;0.98;;;;;;;;;;5061019;28;20036;-77
2023/11/25 07:49:16;;;;;;;2.80;0.50;;;;;;;;;;5085627;28;20135;-76
2023/11/25 07:51:41;;;;;;;6.18;0.77;;;;;;;;;;5057937;28;20031;-77
2023/11/25 07:54:08;;;;;;;3.45;0.63;;;;;;;;;;5064260;28;20123;-77
2023/11/25 07:56:34;;;;;;;7.55;1.10;;;;;;;;;;5062278;28;20021;-77
2023/11/25 07:59:00;;;;;;;5.32;0.75;;;;;;;;;;5067074;28;20482;-77
2023/11/25 08:01:26;;;;;;;7.80;0.98;;;;;;;;;;5047692;28;20099;-76
2023/11/25 08:03:52;;;;;;;7.47;1.05;;;;;;;;;;5066897;28;20441;-77
2023/11/25 08:06:18;;;;;;;6.88;1.10;;;;;;;;;;5062655;28;20029;-76
2023/11/25 08:08:45;;;;;;;4.95;0.95;;;;;;;;;;5080483;28;20064;-77
2023/11/25 08:11:11;;;;;;;4.30;0.57;;;;;;;;;;5063252;28;20119;-76
2023/11/25 08:13:37;;;;;;;5.13;0.98;;;;;;;;;;5064702;28;20116;-76
2023/11/25 08:16:04;;;;;;;5.43;1.05;;;;;;;;;;5070350;28;20199;-76
2023/11/25 08:18:31;;;;;;;3.40;0.80;;;;;;;;;;5037177;28;20090;-76
2023/11/25 08:20:56;;;;;;;9.73;0.90;;;;;;;;;;5072064;28;20040;-77
2023/11/25 08:23:23;;;;;;;7.45;1.02;;;;;;;;;;5041436;28;20028;-77
2023/11/25 08:25:49;;;;;;;2.80;0.70;;;;;;;;;;5077469;28;20098;-76
2023/11/25 08:28:14;;;;;;;9.27;1.70;;;;;;;;;;5064032;28;20074;-77
2023/11/25 08:30:40;;;;;;;7.32;0.82;;;;;;;;;;5039109;28;20059;-77
2023/11/25 08:33:05;;;;;;;2.92;0.70;;;;;;;;;;5062810;28;20126;-77
2023/11/25 08:35:31;;;;;;;3.92;0.50;;;;;;;;;;5048921;28;20143;-78
2023/11/25 08:37:57;;;;;;;5.75;0.77;;;;;;;;;;5056049;28;20037;-77
2023/11/25 08:40:22;;;;;;;4.07;0.95;;;;;;;;;;5075931;28;20064;-77
2023/11/25 08:42:49;;;;;;;5.10;0.73;;;;;;;;;;5058698;28;20025;-77
2023/11/25 08:45:15;;;;;;;7.55;1.20;;;;;;;;;;5065156;28;20028;-77
2023/11/25 08:47:42;;;;;;;2.47;0.88;;;;;;;;;;5064805;28;20032;-77
2023/11/25 08:50:10;;;;;;;4.13;0.80;;;;;;;;;;5045531;28;20041;-77
2023/11/25 08:52:38;;;;;;;5.95;0.85;;;;;;;;;;5063156;28;20115;-77
2023/11/25 08:55:11;;;;;;;5.80;0.77;;;;;;;;;;5057448;28;20032;-77
2023/11/25 08:57:37;;;;;;;4.13;0.80;;;;;;;;;;5065208;28;20042;-77
2023/11/25 09:00:21;;;;;;;5.65;0.88;;;;;;;;;;5064862;28;20032;-78
2023/11/25 09:02:50;;;;;;;5.80;0.90;;;;;;;;;;5064540;28;20498;-77
2023/11/25 09:05:21;;;;;;;4.85;0.95;;;;;;;;;;5063668;28;20035;-77
2023/11/25 09:07:50;;;;;;;3.97;0.60;;;;;;;;;;5049167;28;20531;-78
2023/11/25 09:10:16;;;;;;;7.28;1.15;;;;;;;;;;5050571;28;20033;-78
2023/11/25 09:12:42;;;;;;;6.93;1.25;;;;;;;;;;5063149;28;20789;-78
2023/11/25 09:15:08;;;;;;;4.88;0.70;;;;;;;;;;5064770;28;20028;-77
2023/11/25 09:17:38;;;;;;;3.65;0.85;;;;;;;;;;5079199;28;20522;-77
2023/11/25 09:20:09;;;;;;;6.55;0.85;;;;;;;;;;5064185;28;21781;-78
2023/11/25 09:22:37;;;;;;;5.22;0.93;;;;;;;;;;5062002;28;20036;-78
2023/11/25 09:25:03;;;;;;;3.83;0.98;;;;;;;;;;5057503;28;20032;-77
2023/11/25 09:27:29;;;;;;;4.85;0.70;;;;;;;;;;5054547;28;20031;-76
2023/11/25 09:29:54;;;;;;;3.83;0.60;;;;;;;;;;5056263;28;20037;-76
2023/11/25 09:32:22;;;;;;;4.50;0.70;;;;;;;;;;5043040;28;20037;-76
2023/11/25 09:34:48;;;;;;;7.65;1.00;;;;;;;;;;5058381;28;20182;-77
2023/11/25 09:37:14;;;;;;;5.68;0.90;;;;;;;;;;5026837;28;20033;-76
2023/11/25 09:39:40;;;;;;;7.22;0.75;;;;;;;;;;5060826;28;20054;-76
2023/11/25 09:42:06;;;;;;;2.90;0.60;;;;;;;;;;5058729;28;20458;-77
2023/11/25 09:44:32;;;;;;;3.92;0.90;;;;;;;;;;5047049;28;20037;-76
2023/11/25 09:46:57;;;;;;;4.00;0.65;;;;;;;;;;5064753;28;20025;-76
2023/11/25 09:49:23;;;;;;;3.78;1.05;;;;;;;;;;5062440;28;20421;-76
2023/11/25 09:51:51;;;;;;;4.68;0.68;;;;;;;;;;5059363;28;20596;-76
2023/11/25 09:54:23;;;;;;;2.90;0.60;;;;;;;;;;5057273;28;20037;-76
2023/11/25 09:56:52;;;;;;;5.40;0.88;;;;;;;;;;5058912;28;20176;-77
2023/11/25 09:59:20;;;;;;;4.22;0.65;;;;;;;;;;5054995;28;20111;-76
2023/11/25 10:01:46;;;;;;;8.82;1.25;;;;;;;;;;5058392;28;20631;-76
2023/11/25 10:04:14;;;;;;;5.32;1.02;;;;;;;;;;5040964;28;20037;-76
2023/11/25 10:06:39;;;;;;;3.13;0.55;;;;;;;;;;5045539;28;20047;-76
2023/11/25 10:09:09;;;;;;;4.03;0.50;;;;;;;;;;5062655;28;20546;-76
2023/11/25 10:11:35;;;;;;;5.95;0.70;;;;;;;;;;5055749;28;20051;-76
2023/11/25 10:14:03;;;;;;;5.65;0.77;;;;;;;;;;5045139;28;20029;-76
2023/11/25 10:16:29;;;;;;;7.03;0.88;;;;;;;;;;5032622;28;20469;-76
2023/11/25 10:18:56;;;;;;;5.07;0.95;;;;;;;;;;5054251;28;20036;-76
2023/11/25 10:21:22;;;;;;;4.15;0.65;;;;;;;;;;5040571;28;20124;-77
2023/11/25 10:23:50;;;;;;;6.85;0.80;;;;;;;;;;5078971;28;20074;-77
2023/11/25 10:26:18;;;;;;;4.53;0.90;;;;;;;;;;5058194;28;20032;-77
2023/11/25 10:28:45;;;;;;;4.88;1.00;;;;;;;;;;5057098;28;20024;-76
2023/11/25 10:31:14;;;;;;;4.57;1.00;;;;;;;;;;5052842;28;20114;-76
2023/11/25 10:33:41;;;;;;;6.88;1.05;;;;;;;;;;5053583;28;20468;-76
2023/11/25 10:36:08;;;;;;;5.07;1.17;;;;;;;;;;5052600;28;20044;-76
2023/11/25 10:38:34;;;;;;;9.05;1.30;;;;;;;;;;5044743;28;20109;-76
2023/11/25 10:41:01;;;;;;;5.40;1.20;;;;;;;;;;5051551;28;20060;-76
2023/11/25 10:43:27;;;;;;;7.13;1.30;;;;;;;;;;5038061;28;21077;-76
2023/11/25 10:46:02;;;;;;;5.07;1.38;;;;;;;;;;5055258;28;20037;-76
2023/11/25 10:48:29;;;;;;;4.55;0.93;;;;;;;;;;5058539;28;20025;-76
2023/11/25 10:50:57;;;;;;;7.75;0.80;;;;;;;;;;5047800;28;20035;-76
2023/11/25 10:53:29;;;;;;;9.55;1.23;;;;;;;;;;5082624;28;20059;-76
2023/11/25 10:55:58;;;;;;;6.68;1.00;;;;;;;;;;5053846;28;20136;-76
2023/11/25 10:58:29;;;;;;;10.80;1.33;;;;;;;;;;5043725;28;20044;-77
2023/11/25 11:00:55;;;;;;;3.83;0.90;;;;;;;;;;5041377;28;20041;-76
2023/11/25 11:03:24;;;;;;;6.70;0.95;;;;;;;;;;5077904;28;20037;-76
2023/11/25 11:06:01;;;;;;;5.35;1.08;;;;;;;;;;5053978;28;20060;-76
2023/11/25 11:08:37;;;;;;;6.63;1.30;;;;;;;;;;5058816;28;20034;-87
2023/11/25 11:11:13;;;;;;;6.38;1.13;;;;;;;;;;5044467;28;20024;-86
2023/11/25 11:14:14;;;;;;;7.60;1.08;;;;;;;;;;5070889;28;20060;-87
2023/11/25 11:16:40;;;;;;;6.68;1.23;;;;;;;;;;5027057;28;20045;-85
2023/11/25 11:19:09;;;;;;;12.25;1.13;;;;;;;;;;5059722;28;20402;-87
2023/11/25 11:21:37;;;;;;;7.70;1.27;;;;;;;;;;5051287;28;20043;-87
2023/11/25 11:24:04;;;;;;;11.15;1.52;;;;;;;;;;5058074;28;20036;-87
2023/11/25 11:26:49;;;;;;;5.93;0.90;;;;;;;;;;5056217;28;20032;-87
2023/11/25 11:29:52;;;;;;;5.15;0.77;;;;;;;;;;5057557;28;20067;-85
2023/11/25 11:32:21;;;;;;;12.18;1.02;;;;;;;;;;5049444;28;20048;-86
2023/11/25 11:34:48;;;;;;;7.75;1.00;;;;;;;;;;5055680;28;20472;-87
2023/11/25 11:37:14;;;;;;;21.38;1.38;;;;;;;;;;5033334;28;20093;-87
2023/11/25 11:39:51;;;;;;;10.35;1.20;;;;;;;;;;5047806;28;20131;-86
2023/11/25 11:42:25;;;;;;;11.00;1.27;;;;;;;;;;5062371;28;20032;-87
2023/11/25 11:47:44;;;;;;;9.23;1.40;;;;;;;;;;5078763;28;20052;-86
2023/11/25 11:50:14;;;;;;;8.13;1.35;;;;;;;;;;5078402;28;20501;-86
2023/11/25 11:52:49;;;;;;;7.40;1.40;;;;;;;;;;5046715;28;20234;-87
2023/11/25 11:55:52;;;;;;;8.88;1.33;;;;;;;;;;5058034;28;20066;-86
2023/11/25 11:58:21;;;;;;;9.75;1.02;;;;;;;;;;5058092;28;20119;-87
2023/11/25 12:01:00;;;;;;;6.63;1.10;;;;;;;;;;5057572;28;20083;-87
2023/11/25 12:03:26;;;;;;;7.60;1.08;;;;;;;;;;5054459;28;20086;-86
2023/11/25 12:05:53;;;;;;;4.75;0.90;;;;;;;;;;5053092;28;20032;-85
2023/11/25 12:08:22;;;;;;;5.63;1.00;;;;;;;;;;5049147;28;20056;-86
2023/11/25 12:10:48;;;;;;;5.38;1.10;;;;;;;;;;5073313;28;20039;-86
2023/11/25 12:13:38;;;;;;;11.25;1.20;;;;;;;;;;5060884;28;20029;-86
2023/11/25 12:16:04;;;;;;;9.25;1.23;;;;;;;;;;5051375;28;20446;-86
2023/11/25 12:18:35;;;;;;;9.60;1.10;;;;;;;;;;5052499;28;20040;-86
2023/11/25 12:21:02;;;;;;;6.03;1.10;;;;;;;;;;5059131;28;20020;-86
2023/11/25 12:23:29;;;;;;;8.90;1.52;;;;;;;;;;5050372;28;20037;-86
2023/11/25 12:25:56;;;;;;;11.25;1.45;;;;;;;;;;5034385;28;20060;-85
2023/11/25 12:28:23;;;;;;;8.52;1.20;;;;;;;;;;5050328;28;20074;-86
2023/11/25 12:30:50;;;;;;;6.20;0.85;;;;;;;;;;5047798;28;20136;-86
2023/11/25 12:33:16;;;;;;;11.70;1.30;;;;;;;;;;5052212;28;20029;-87
2023/11/25 12:35:46;;;;;;;7.00;1.42;;;;;;;;;;5063719;28;20039;-86
2023/11/25 12:38:13;;;;;;;6.70;1.20;;;;;;;;;;5064972;28;20028;-85
2023/11/25 12:40:39;;;;;;;10.93;1.00;;;;;;;;;;5051537;28;20039;-87
2023/11/25 12:43:10;;;;;;;4.93;1.00;;;;;;;;;;5066174;28;20129;-88
2023/11/25 12:45:41;;;;;;;8.55;1.20;;;;;;;;;;5036765;28;20071;-88
2023/11/25 12:48:11;;;;;;;11.98;1.33;;;;;;;;;;5035986;28;20402;-88
2023/11/25 12:50:59;;;;;;;6.38;1.10;;;;;;;;;;5055965;28;20028;-87
2023/11/25 12:53:24;;;;;;;7.60;1.00;;;;;;;;;;5061991;28;20028;-87
2023/11/25 12:55:50;;;;;;;7.90;1.02;;;;;;;;;;5027227;28;20470;-87
2023/11/25 12:58:17;;;;;;;6.28;0.85;;;;;;;;;;5046050;28;20033;-86
2023/11/25 13:00:45;;;;;;;10.85;1.00;;;;;;;;;;5075364;28;20128;-86
2023/11/25 13:03:12;;;;;;;7.60;0.95;;;;;;;;;;5064774;28;20032;-87
2023/11/25 13:05:38;;;;;;;6.70;1.40;;;;;;;;;;5063576;28;20466;-85
2023/11/25 13:08:27;;;;;;;4.05;1.00;;;;;;;;;;5053531;28;20032;-86
2023/11/25 13:10:54;;;;;;;9.45;1.20;;;;;;;;;;5063844;28;20036;-87
2023/11/25 13:13:20;;;;;;;7.05;0.90;;;;;;;;;;5061985;28;20445;-86
2023/11/25 13:15:46;;;;;;;8.77;1.15;;;;;;;;;;5048086;28;20037;-87
2023/11/25 13:18:11;;;;;;;2.30;0.70;;;;;;;;;;5066252;28;20056;-86
2023/11/25 13:20:38;;;;;;;11.43;1.02;;;;;;;;;;5065353;28;20063;-87
2023/11/25 13:23:05;;;;;;;7.07;1.05;;;;;;;;;;5092498;28;20055;-82
2023/11/25 13:25:32;;;;;;;9.07;1.30;;;;;;;;;;5078483;28;20029;-87
2023/11/25 13:27:58;;;;;;;5.68;1.13;;;;;;;;;;5064771;28;20113;-76
2023/11/25 13:30:24;;;;;;;5.85;0.73;;;;;;;;;;5069113;28;20070;-76
2023/11/25 13:32:53;;;;;;;3.90;0.80;;;;;;;;;;5070540;28;20029;-76
2023/11/25 13:35:20;;;;;;;5.20;0.93;;;;;;;;;;5067940;28;20032;-77
2023/11/25 13:37:48;;;;;;;4.65;0.90;;;;;;;;;;5064145;28;20031;-77
2023/11/25 13:40:19;;;;;;;4.47;0.80;;;;;;;;;;5071526;28;20028;-77
2023/11/25 13:42:46;;;;;;;6.30;0.70;;;;;;;;;;5069303;28;20024;-77
2023/11/25 13:45:13;;;;;;;3.03;0.75;;;;;;;;;;5069427;28;20048;-77
2023/11/25 13:47:41;;;;;;;7.13;0.90;;;;;;;;;;5067821;28;20031;-77
2023/11/25 13:50:07;;;;;;;6.38;1.00;;;;;;;;;;5066997;28;20056;-77
2023/11/25 13:52:33;;;;;;;4.95;1.00;;;;;;;;;;5062792;28;20043;-76
2023/11/25 13:54:58;;;;;;;6.03;1.00;;;;;;;;;;5064947;28;20059;-77
2023/11/25 13:57:24;;;;;;;4.90;0.82;;;;;;;;;;5064059;28;20055;-76
2023/11/25 13:59:51;;;;;;;8.95;1.20;;;;;;;;;;5057226;28;20043;-76
2023/11/25 14:02:17;;;;;;;7.78;1.02;;;;;;;;;;5035948;28;20044;-76
2023/11/25 14:04:42;;;;;;;6.45;0.90;;;;;;;;;;5069285;28;20028;-76
2023/11/25 14:07:09;;;;;;;11.50;1.17;;;;;;;;;;5062872;28;20063;-76
2023/11/25 14:09:36;;;;;;;3.40;0.80;;;;;;;;;;5068853;28;20031;-76
2023/11/25 14:12:03;;;;;;;6.03;1.10;;;;;;;;;;5053400;28;20040;-76
2023/11/25 14:14:28;;;;;;;5.57;0.88;;;;;;;;;;5068775;28;20037;-76
2023/11/25 14:16:55;;;;;;;10.38;1.30;;;;;;;;;;5066625;28;20070;-76
2023/11/25 14:19:20;;;;;;;8.73;1.13;;;;;;;;;;5054747;28;20036;-76
2023/11/25 14:21:46;;;;;;;8.23;1.20;;;;;;;;;;5086315;28;20078;-76
2023/11/25 14:24:11;;;;;;;8.95;1.35;;;;;;;;;;5069084;28;20102;-76
2023/11/25 14:26:37;;;;;;;7.00;1.08;;;;;;;;;;5066190;28;20493;-76
2023/11/25 14:29:02;;;;;;;9.65;1.38;;;;;;;;;;5069064;28;20485;-76
2023/11/25 14:31:32;;;;;;;8.98;1.00;;;;;;;;;;5068435;28;20029;-76
2023/11/25 14:33:58;;;;;;;9.32;1.15;;;;;;;;;;5083692;28;20033;-76
2023/11/25 14:36:26;;;;;;;4.82;1.00;;;;;;;;;;5068556;28;20060;-87
2023/11/25 14:38:51;;;;;;;9.20;1.90;;;;;;;;;;5053475;28;20036;-88
2023/11/25 14:41:22;;;;;;;8.50;1.30;;;;;;;;;;5068444;28;20563;-87
2023/11/25 14:43:49;;;;;;;8.18;1.00;;;;;;;;;;5065091;28;20037;-88